createdAt,value
2022-11-23T00:01:28.819Z,2.40
2022-11-23T00:06:35.362Z,2.50
2022-11-23T00:11:39.310Z,2.50
2022-11-23T00:16:43.277Z,2.40
2022-11-23T00:21:48.360Z,2.50
2022-11-23T00:26:52.240Z,1.92
2022-11-23T00:31:55.953Z,2.20
2022-11-23T00:37:01.065Z,2.33
2022-11-23T00:42:05.035Z,2.40
2022-11-23T00:47:08.834Z,2.05
2022-11-23T00:52:13.934Z,2.17
2022-11-23T00:57:17.703Z,2.00
2022-11-23T01:02:21.589Z,2.13
2022-11-23T01:07:26.746Z,2.20
2022-11-23T01:12:31.236Z,1.90
2022-11-23T01:17:34.801Z,1.90
2022-11-23T01:22:40.905Z,1.95
2022-11-23T01:27:46.127Z,2.00
2022-11-23T01:32:49.866Z,1.92
2022-11-23T01:37:56.676Z,2.25
2022-11-23T01:43:02.741Z,1.85
2022-11-23T01:48:15.533Z,1.85
2022-11-23T01:53:21.495Z,1.80
2022-11-23T01:58:29.116Z,1.70
2022-11-23T02:03:34.569Z,1.80
2022-11-23T02:13:49.901Z,1.80
2022-11-23T02:18:54.873Z,1.70
2022-11-23T02:24:09.255Z,1.70
2022-11-23T02:29:21.475Z,1.73
2022-11-23T02:34:25.288Z,1.80
2022-11-23T02:39:35.948Z,1.50
2022-11-23T02:44:50.500Z,1.50
2022-11-23T02:49:54.086Z,1.52
2022-11-23T02:54:59.005Z,1.67
2022-11-23T03:00:05.620Z,1.40
2022-11-23T03:05:10.565Z,1.50
2022-11-23T03:10:14.920Z,1.40
2022-11-23T03:15:22.336Z,1.40
2022-11-23T03:20:26.343Z,1.30
2022-11-23T03:25:30.579Z,1.42
2022-11-23T03:30:37.226Z,1.40
2022-11-23T03:35:43.415Z,1.20
2022-11-23T03:40:55.330Z,1.60
2022-11-23T03:46:02.878Z,1.30
2022-11-23T03:51:07.479Z,1.67
2022-11-23T03:56:11.459Z,1.20
2022-11-23T04:01:21.282Z,1.40
2022-11-23T04:06:31.565Z,1.38
2022-11-23T04:11:42.554Z,1.30
2022-11-23T04:16:49.017Z,1.33
2022-11-23T04:21:53.233Z,1.52
2022-11-23T04:26:58.141Z,1.40
2022-11-23T04:32:03.661Z,1.30
2022-11-23T04:37:11.794Z,1.33
2022-11-23T04:42:18.413Z,1.30
2022-11-23T04:47:31.442Z,1.33
2022-11-23T04:52:39.586Z,1.30
2022-11-23T04:57:49.496Z,1.30
2022-11-23T05:02:55.459Z,1.25
2022-11-23T05:08:03.149Z,1.30
2022-11-23T05:13:26.250Z,1.30
2022-11-23T05:18:31.463Z,1.30
2022-11-23T05:23:35.360Z,1.30
2022-11-23T05:28:42.169Z,1.10
2022-11-23T05:33:51.555Z,1.30
2022-11-23T05:39:06.069Z,1.15
2022-11-23T05:44:10.061Z,1.30
2022-11-23T05:49:15.436Z,1.20
2022-11-23T05:54:20.616Z,1.30
2022-11-23T05:59:36.212Z,1.30
2022-11-23T06:04:41.884Z,1.30
2022-11-23T06:09:49.388Z,1.30
2022-11-23T06:14:53.496Z,1.13
2022-11-23T06:20:03.052Z,1.20
2022-11-23T06:25:08.234Z,1.20
2022-11-23T06:30:17.661Z,1.20
2022-11-23T06:35:24.882Z,1.40
2022-11-23T06:40:29.007Z,1.30
2022-11-23T06:45:32.982Z,1.27
2022-11-23T06:50:43.141Z,1.10
2022-11-23T06:55:46.972Z,1.17
2022-11-23T07:00:54.135Z,1.10
2022-11-23T07:06:05.192Z,1.25
2022-11-23T07:11:10.774Z,1.08
2022-11-23T07:16:16.044Z,1.25
2022-11-23T07:21:21.807Z,1.15
2022-11-23T07:26:27.352Z,1.13
2022-11-23T07:31:31.149Z,1.10
2022-11-23T07:36:36.676Z,1.20
2022-11-23T07:41:40.551Z,1.00
2022-11-23T07:46:47.127Z,1.10
2022-11-23T07:51:52.935Z,1.00
2022-11-23T07:56:56.671Z,1.20
2022-11-23T08:02:00.523Z,1.10
2022-11-23T08:07:06.175Z,1.00
2022-11-23T08:12:10.126Z,0.98
2022-11-23T08:17:13.844Z,0.93
2022-11-23T08:22:19.132Z,1.10
2022-11-23T08:27:23.123Z,1.20
2022-11-23T08:32:26.845Z,1.30
2022-11-23T08:37:31.864Z,1.40
2022-11-23T08:42:35.564Z,1.27
2022-11-23T08:47:39.237Z,1.50
2022-11-23T08:52:44.334Z,1.33
2022-11-23T08:57:48.146Z,1.42
2022-11-23T09:02:51.848Z,1.50
2022-11-23T09:08:00.381Z,1.48
2022-11-23T09:13:04.352Z,1.45
2022-11-23T09:18:08.248Z,1.60
2022-11-23T09:23:16.178Z,1.35
2022-11-23T09:28:20.696Z,1.30
2022-11-23T09:33:26.186Z,1.50
2022-11-23T09:38:55.525Z,1.20
2022-11-23T09:44:03.288Z,1.40
2022-11-23T09:49:17.100Z,1.10
2022-11-23T09:54:31.742Z,1.35
2022-11-23T09:59:43.623Z,1.30
2022-11-23T10:04:47.306Z,1.08
2022-11-23T10:10:06.516Z,1.20
2022-11-23T10:15:19.191Z,1.35
2022-11-23T10:20:44.216Z,1.27
2022-11-23T10:25:53.144Z,1.10
2022-11-23T10:31:13.682Z,1.00
2022-11-23T10:36:17.690Z,1.05
2022-11-23T10:41:22.780Z,1.10
2022-11-23T10:46:33.738Z,1.40
2022-11-23T10:51:37.877Z,1.10
2022-11-23T10:56:48.976Z,1.00
2022-11-23T11:02:10.512Z,1.23
2022-11-23T11:07:31.494Z,1.27
2022-11-23T11:12:37.264Z,1.20
2022-11-23T11:17:42.331Z,1.10
2022-11-23T11:22:47.909Z,1.35
2022-11-23T11:27:55.099Z,1.05
2022-11-23T11:33:09.860Z,1.00
2022-11-23T11:38:20.944Z,1.20
2022-11-23T11:43:39.647Z,1.10
2022-11-23T11:48:49.351Z,1.10
2022-11-23T11:54:01.166Z,1.20
2022-11-23T11:59:17.517Z,1.00
2022-11-23T12:04:38.813Z,1.10
2022-11-23T12:09:48.223Z,0.95
2022-11-23T12:14:54.192Z,1.00
2022-11-23T12:20:09.464Z,1.10
2022-11-23T12:25:33.384Z,1.10
2022-11-23T12:30:52.788Z,1.40
2022-11-23T12:36:26.426Z,1.35
2022-11-23T12:41:41.047Z,1.50
2022-11-23T12:46:55.530Z,1.50
2022-11-23T12:52:17.839Z,1.55
2022-11-23T12:57:29.515Z,1.50
2022-11-23T13:03:34.159Z,1.60
2022-11-23T13:09:11.983Z,1.33
2022-11-23T13:14:30.275Z,1.85
2022-11-23T13:20:22.545Z,1.40
2022-11-23T13:25:29.307Z,1.33
2022-11-23T13:31:07.127Z,1.40
2022-11-23T13:47:33.599Z,1.50
2022-11-23T13:52:39.394Z,1.40
2022-11-23T13:57:46.645Z,1.50
2022-11-23T14:02:50.542Z,1.60
2022-11-23T14:07:56.849Z,1.80
2022-11-23T14:13:09.438Z,1.60
2022-11-23T14:18:54.414Z,1.52
2022-11-23T14:24:45.880Z,1.50
2022-11-23T14:30:08.239Z,1.50
2022-11-23T14:35:28.290Z,1.50
2022-11-23T14:40:54.245Z,1.60
2022-11-23T14:46:04.275Z,1.50
2022-11-23T14:51:15.194Z,1.42
2022-11-23T14:56:32.559Z,1.30
2022-11-23T15:01:36.985Z,1.60
2022-11-23T15:06:45.999Z,1.50
2022-11-23T15:11:51.121Z,1.60
2022-11-23T15:16:54.866Z,1.48
2022-11-23T15:21:59.159Z,1.42
2022-11-23T15:27:12.386Z,1.40
2022-11-23T15:32:32.636Z,1.65
2022-11-23T15:37:46.613Z,1.30
2022-11-23T15:42:52.972Z,1.50
2022-11-23T15:47:56.684Z,1.40
2022-11-23T15:53:02.122Z,1.33
2022-11-23T15:58:10.456Z,1.52
2022-11-23T16:03:35.482Z,1.45
2022-11-23T16:08:41.043Z,1.35
2022-11-23T16:13:46.318Z,1.67
2022-11-23T16:18:56.930Z,1.83
2022-11-23T16:24:01.172Z,1.90
2022-11-23T16:29:06.301Z,1.90
2022-11-23T16:34:14.959Z,1.90
2022-11-23T16:39:18.545Z,2.05
2022-11-23T16:44:23.685Z,2.28
2022-11-23T16:49:28.888Z,2.88
2022-11-23T16:54:32.602Z,2.83
2022-11-23T16:59:37.894Z,3.17
2022-11-23T17:04:41.740Z,2.78
2022-11-23T17:09:45.794Z,2.90
2022-11-23T17:14:51.890Z,2.92
2022-11-23T17:19:59.694Z,3.15
2022-11-23T17:25:13.084Z,2.75
2022-11-23T17:30:23.263Z,2.45
2022-11-23T17:35:27.462Z,2.70
2022-11-23T17:40:31.139Z,2.25
2022-11-23T17:45:36.418Z,2.40
2022-11-23T17:50:40.550Z,2.53
2022-11-23T17:55:44.725Z,2.55
2022-11-23T18:00:49.960Z,2.25
2022-11-23T18:05:53.724Z,2.10
2022-11-23T18:10:59.411Z,2.25
2022-11-23T18:16:05.484Z,2.33
2022-11-23T18:21:10.892Z,2.20
2022-11-23T18:26:21.847Z,2.13
2022-11-23T18:31:27.280Z,2.00
2022-11-23T18:36:31.483Z,2.15
2022-11-23T18:41:35.128Z,1.90
2022-11-23T18:46:41.279Z,2.00
2022-11-23T18:51:45.062Z,2.00
2022-11-23T18:56:48.925Z,2.20
2022-11-23T19:01:54.384Z,1.90
2022-11-23T19:06:58.420Z,1.90
2022-11-23T19:12:02.324Z,1.70
2022-11-23T19:17:07.491Z,1.90
2022-11-23T19:22:11.326Z,1.80
2022-11-23T19:27:15.282Z,1.50
2022-11-23T19:32:20.511Z,1.38
2022-11-23T19:37:24.405Z,1.60
2022-11-23T19:42:28.148Z,1.90
2022-11-23T19:47:33.490Z,1.50
2022-11-23T19:53:10.062Z,1.60
2022-11-23T19:58:01.881Z,1.65
2022-11-23T20:03:07.000Z,1.42
2022-11-23T20:08:10.890Z,1.30
2022-11-23T20:13:15.353Z,1.60
2022-11-23T20:18:24.395Z,1.55
2022-11-23T20:23:31.445Z,1.13
2022-11-23T20:28:35.807Z,1.52
2022-11-23T20:33:41.117Z,1.40
2022-11-23T20:38:46.080Z,1.45
2022-11-23T20:43:53.684Z,1.23
2022-11-23T20:48:59.362Z,1.50
2022-11-23T20:54:03.275Z,1.23
2022-11-23T20:59:07.030Z,1.38
2022-11-23T21:04:12.512Z,1.20
2022-11-23T21:09:17.220Z,1.33
2022-11-23T21:14:24.600Z,1.38
2022-11-23T21:19:33.192Z,1.23
2022-11-23T21:24:37.242Z,1.10
2022-11-23T21:29:41.358Z,1.27
2022-11-23T21:34:46.557Z,1.40
2022-11-23T21:39:53.021Z,1.27
2022-11-23T21:44:57.530Z,1.30
2022-11-23T21:50:03.288Z,1.20
2022-11-23T21:55:09.728Z,1.40
2022-11-23T22:00:14.909Z,1.20
2022-11-23T22:05:19.976Z,1.60
2022-11-23T22:10:23.609Z,1.45
2022-11-23T22:15:28.239Z,1.50
2022-11-23T22:20:34.986Z,1.50
2022-11-23T22:25:38.656Z,1.58
2022-11-23T22:30:42.491Z,1.50
2022-11-23T22:35:47.729Z,1.60
2022-11-23T22:40:51.351Z,1.77
2022-11-23T22:45:55.229Z,1.50
2022-11-23T22:51:02.753Z,1.98
2022-11-23T22:56:08.196Z,2.13
2022-11-23T23:01:14.990Z,1.90
2022-11-23T23:06:23.159Z,2.13
2022-11-23T23:11:30.246Z,1.83
2022-11-23T23:16:34.250Z,2.00
2022-11-23T23:21:39.322Z,1.85
2022-11-23T23:26:42.951Z,2.03
2022-11-23T23:31:46.943Z,1.80
2022-11-23T23:36:51.937Z,1.98
2022-11-23T23:41:55.658Z,1.90
2022-11-23T23:46:59.330Z,1.95
2022-11-23T23:52:06.087Z,2.33
2022-11-23T23:57:10.201Z,2.15
